sensor_id;sensor_type;location;lat;lon;timestamp;P1;durP1;ratioP1;P2;durP2;ratioP2
13687;SDS011;6916;51.504;7.416;2023-02-14T05:13:07;7.23;;;5.60;;
13687;SDS011;6916;51.504;7.416;2023-02-14T05:23:09;8.67;;;5.60;;
13687;SDS011;6916;51.504;7.416;2023-02-14T05:33:14;7.03;;;5.20;;
13687;SDS011;6916;51.504;7.416;2023-02-14T05:43:16;8.17;;;5.93;;
13687;SDS011;6916;51.504;7.416;2023-02-14T05:53:20;6.17;;;5.00;;
13687;SDS011;6916;51.504;7.416;2023-02-14T06:03:23;6.33;;;4.87;;
13687;SDS011;6916;51.504;7.416;2023-02-14T15:21:28;18.42;;;11.60;;
13687;SDS011;6916;51.504;7.416;2023-02-14T15:31:38;11.80;;;6.30;;
13687;SDS011;6916;51.504;7.416;2023-02-14T15:41:43;8.73;;;5.25;;
13687;SDS011;6916;51.504;7.416;2023-02-14T15:51:47;12.17;;;5.00;;
13687;SDS011;6916;51.504;7.416;2023-02-14T16:01:53;13.57;;;6.40;;
13687;SDS011;6916;51.504;7.416;2023-02-14T16:22:32;17.80;;;8.98;;
13687;SDS011;6916;51.504;7.416;2023-02-14T16:32:34;15.83;;;9.57;;
13687;SDS011;6916;51.504;7.416;2023-02-14T16:42:39;15.90;;;9.57;;
13687;SDS011;6916;51.504;7.416;2023-02-14T16:52:42;14.52;;;9.55;;
13687;SDS011;6916;51.504;7.416;2023-02-14T17:02:47;18.98;;;10.15;;
13687;SDS011;6916;51.504;7.416;2023-02-14T17:12:51;26.20;;;10.93;;
13687;SDS011;6916;51.504;7.416;2023-02-14T17:22:53;20.63;;;10.47;;
13687;SDS011;6916;51.504;7.416;2023-02-14T17:32:59;18.45;;;9.73;;
13687;SDS011;6916;51.504;7.416;2023-02-14T17:43:02;17.17;;;10.87;;
13687;SDS011;6916;51.504;7.416;2023-02-14T17:53:10;17.83;;;10.83;;
13687;SDS011;6916;51.504;7.416;2023-02-14T18:03:13;22.70;;;13.03;;
13687;SDS011;6916;51.504;7.416;2023-02-14T18:13:18;16.67;;;12.23;;
13687;SDS011;6916;51.504;7.416;2023-02-14T18:23:23;23.73;;;13.60;;
13687;SDS011;6916;51.504;7.416;2023-02-14T18:33:27;20.83;;;15.47;;
13687;SDS011;6916;51.504;7.416;2023-02-14T18:43:39;29.05;;;18.02;;
13687;SDS011;6916;51.504;7.416;2023-02-14T18:53:55;30.03;;;17.93;;
13687;SDS011;6916;51.504;7.416;2023-02-14T19:04:00;30.77;;;20.07;;
13687;SDS011;6916;51.504;7.416;2023-02-14T19:14:04;31.93;;;18.50;;
13687;SDS011;6916;51.504;7.416;2023-02-14T19:24:12;21.00;;;13.57;;
13687;SDS011;6916;51.504;7.416;2023-02-14T19:34:20;15.60;;;10.67;;
13687;SDS011;6916;51.504;7.416;2023-02-14T19:44:30;16.17;;;11.33;;
13687;SDS011;6916;51.504;7.416;2023-02-14T19:54:40;15.50;;;10.20;;
13687;SDS011;6916;51.504;7.416;2023-02-14T20:04:44;11.55;;;8.35;;
13687;SDS011;6916;51.504;7.416;2023-02-14T20:14:47;13.03;;;8.77;;
13687;SDS011;6916;51.504;7.416;2023-02-14T20:24:57;14.90;;;8.87;;
13687;SDS011;6916;51.504;7.416;2023-02-14T20:35:03;14.63;;;9.30;;
13687;SDS011;6916;51.504;7.416;2023-02-14T20:45:11;15.07;;;9.30;;
13687;SDS011;6916;51.504;7.416;2023-02-14T20:55:24;17.63;;;9.80;;
13687;SDS011;6916;51.504;7.416;2023-02-14T21:05:36;17.83;;;10.40;;
13687;SDS011;6916;51.504;7.416;2023-02-14T21:15:40;18.20;;;11.40;;
13687;SDS011;6916;51.504;7.416;2023-02-14T21:25:43;18.33;;;10.90;;
13687;SDS011;6916;51.504;7.416;2023-02-14T21:35:48;18.20;;;11.73;;
13687;SDS011;6916;51.504;7.416;2023-02-14T21:45:53;17.50;;;11.13;;
13687;SDS011;6916;51.504;7.416;2023-02-14T21:56:04;16.47;;;11.53;;
13687;SDS011;6916;51.504;7.416;2023-02-14T22:06:08;15.37;;;10.77;;
13687;SDS011;6916;51.504;7.416;2023-02-14T22:16:13;13.83;;;10.27;;
13687;SDS011;6916;51.504;7.416;2023-02-14T22:36:25;19.77;;;10.00;;
13687;SDS011;6916;51.504;7.416;2023-02-14T22:46:29;15.60;;;10.00;;
13687;SDS011;6916;51.504;7.416;2023-02-14T22:56:34;15.10;;;10.93;;
13687;SDS011;6916;51.504;7.416;2023-02-14T23:06:39;15.67;;;10.23;;
13687;SDS011;6916;51.504;7.416;2023-02-14T23:16:42;15.03;;;10.07;;
13687;SDS011;6916;51.504;7.416;2023-02-14T23:27:03;17.23;;;10.73;;
13687;SDS011;6916;51.504;7.416;2023-02-14T23:37:06;15.83;;;9.43;;
13687;SDS011;6916;51.504;7.416;2023-02-14T23:47:09;12.63;;;9.10;;
13687;SDS011;6916;51.504;7.416;2023-02-14T23:57:12;17.40;;;10.07;;
